Time;durP1;ratioP1;P1;durP2;ratioP2;P2;SDS_P1;SDS_P2;PMS_P1;PMS_P2;Temp;Humidity;BMP_temperature;BMP_pressure;BME280_temperature;BME280_humidity;BME280_pressure;Samples;Min_cycle;Max_cycle;Signal;HPM_P1;HPM_P2
2022/08/28 00:00:33;;;;;;;;;;;21.00;82.80;;;-147.18;100.00;67318.16;4980388;28;19980;-76
2022/08/28 00:03:02;;;;;;;;;;;21.00;83.00;;;-147.18;100.00;67318.16;4971362;28;19937;-76
2022/08/28 00:05:31;;;;;;;;;;;21.00;82.90;;;-147.18;100.00;67318.16;4973174;28;20008;-76
2022/08/28 00:07:58;;;;;;;;;;;21.00;83.20;;;-147.18;100.00;67318.16;4978918;28;19929;-76
2022/08/28 00:10:26;;;;;;;;;;;21.00;83.10;;;-147.18;100.00;67318.16;4984521;28;19925;-76
2022/08/28 00:12:56;;;;;;;;;;;21.00;83.30;;;-147.18;100.00;67318.16;4971666;28;20013;-76
2022/08/28 00:15:27;;;;;;;;;;;20.90;83.00;;;-147.18;100.00;67318.16;4954426;28;19922;-76
2022/08/28 00:17:54;;;;;;;;;;;20.90;83.30;;;-147.18;100.00;67318.16;4971139;28;20288;-76
2022/08/28 00:20:23;;;;;;;;;;;20.90;83.50;;;-147.18;100.00;67318.16;4981870;28;19932;-76
2022/08/28 00:22:51;;;;;;;;;;;20.90;83.50;;;-147.18;100.00;67318.16;4971224;28;19926;-76
2022/08/28 00:25:22;;;;;;;;;;;20.80;83.20;;;-147.18;100.00;67318.16;4984531;28;19928;-76
2022/08/28 00:27:52;;;;;;;;;;;20.80;83.20;;;-147.18;100.00;67318.16;4989418;28;19926;-76
2022/08/28 00:30:21;;;;;;;;;;;20.80;83.00;;;-147.18;100.00;67318.16;4973527;28;19922;-76
2022/08/28 00:32:48;;;;;;;;;;;20.80;83.20;;;-147.18;100.00;67318.16;4969265;28;19922;-76
2022/08/28 00:35:16;;;;;;;;;;;20.80;83.30;;;-147.18;100.00;67318.16;4983645;28;20024;-76
2022/08/28 00:37:45;;;;;;;;;;;20.80;83.50;;;-147.18;100.00;67318.16;4957151;28;19930;-76
2022/08/28 00:40:15;;;;;;;;;;;20.80;83.60;;;-147.18;100.00;67318.16;4960618;28;19933;-76
2022/08/28 00:42:43;;;;;;;;;;;20.80;83.60;;;-147.18;100.00;67318.16;4974207;28;19922;-76
2022/08/28 00:45:11;;;;;;;;;;;20.70;83.40;;;-147.18;100.00;67318.16;4981636;28;19976;-77
2022/08/28 00:47:38;;;;;;;;;;;20.70;83.40;;;-147.18;100.00;67318.16;4988687;28;19922;-76
2022/08/28 00:50:07;;;;;;;;;;;20.70;83.50;;;-147.18;100.00;67318.16;4980896;28;20020;-76
2022/08/28 00:52:34;;;;;;;;;;;20.60;83.40;;;-147.18;100.00;67318.16;4972052;28;19929;-77
2022/08/28 00:55:07;;;;;;;;;;;20.60;83.80;;;-147.18;100.00;67318.16;4979474;28;19929;-76
2022/08/28 00:57:37;;;;;;;;;;;20.60;83.90;;;-147.18;100.00;67318.16;4975524;28;20020;-76
2022/08/28 01:00:06;;;;;;;;;;;20.60;83.80;;;-147.18;100.00;67318.16;4973138;28;19928;-77
2022/08/28 01:02:33;;;;;;;;;;;20.60;84.00;;;-147.18;100.00;67318.16;4971488;28;19933;-76
2022/08/28 01:05:00;;;;;;;;;;;20.60;84.00;;;-147.18;100.00;67318.16;4971727;28;19926;-76
2022/08/28 01:07:27;;;;;;;;;;;20.60;84.00;;;-147.18;100.00;67318.16;4973181;28;19922;-76
2022/08/28 01:09:55;;;;;;;;;;;20.60;84.00;;;-147.18;100.00;67318.16;4972203;28;19926;-76
2022/08/28 01:12:26;;;;;;;;;;;20.50;84.20;;;-147.18;100.00;67318.16;4973101;28;20369;-76
2022/08/28 01:14:57;;;;;;;;;;;20.50;84.20;;;-147.18;100.00;67318.16;4991850;28;19963;-76
2022/08/28 01:17:25;;;;;;;;;;;20.50;84.20;;;-147.18;100.00;67318.16;4985464;28;19921;-76
2022/08/28 01:19:57;;;;;;;;;;;20.50;84.30;;;-147.18;100.00;67318.16;4969151;28;20382;-75
2022/08/28 01:22:29;;;;;;;;;;;20.50;84.50;;;-147.18;100.00;67318.16;4954685;28;19922;-77
2022/08/28 01:24:59;;;;;;;;;;;20.40;85.00;;;-147.18;100.00;67318.16;4956074;28;19926;-76
2022/08/28 01:27:27;;;;;;;;;;;20.40;85.30;;;-147.18;100.00;67318.16;4965252;28;19926;-76
2022/08/28 01:29:54;;;;;;;;;;;20.40;85.10;;;-147.18;100.00;67318.16;4970449;28;20394;-76
2022/08/28 01:32:33;;;;;;;;;;;20.30;84.90;;;-147.18;100.00;67318.16;4971400;28;19932;-76
2022/08/28 01:35:01;;;;;;;;;;;20.30;85.10;;;-147.18;100.00;67318.16;4982593;28;19968;-76
2022/08/28 01:37:28;;;;;;;;;;;20.20;85.60;;;-147.18;100.00;67318.16;4972315;28;19922;-76
2022/08/28 01:39:55;;;;;;;;;;;20.20;85.60;;;-147.18;100.00;67318.16;4970740;28;19965;-76
2022/08/28 01:42:24;;;;;;;;;;;20.20;85.60;;;-147.18;100.00;67318.16;4983495;28;19934;-76
2022/08/28 01:44:52;;;;;;;;;;;20.20;86.00;;;-147.18;100.00;67318.16;4978151;28;20289;-76
2022/08/28 01:47:20;;;;;;;;;;;20.10;85.90;;;-147.18;100.00;67318.16;4971622;28;19966;-76
2022/08/28 01:49:48;;;;;;;;;;;20.10;86.30;;;-147.18;100.00;67318.16;4971438;28;19933;-77
2022/08/28 01:52:15;;;;;;;;;;;20.10;86.40;;;-147.18;100.00;67318.16;4978053;28;19965;-76
2022/08/28 01:54:42;;;;;;;;;;;20.00;86.30;;;-147.18;100.00;67318.16;4977474;28;20634;-77
2022/08/28 01:57:09;;;;;;;;;;;20.00;86.30;;;-147.18;100.00;67318.16;4971583;28;19958;-76
2022/08/28 01:59:37;;;;;;;;;;;20.00;86.60;;;-147.18;100.00;67318.16;4971127;28;20362;-76
2022/08/28 02:02:04;;;;;;;;;;;20.00;86.60;;;-147.18;100.00;67318.16;4979937;28;19926;-76
2022/08/28 02:04:32;;;;;;;;;;;20.00;86.60;;;-147.18;100.00;67318.16;4984095;28;19957;-76
2022/08/28 02:06:59;;;;;;;;;;;20.00;86.90;;;-147.18;100.00;67318.16;4974986;28;20020;-75
2022/08/28 02:09:26;;;;;;;;;;;19.90;86.90;;;-147.18;100.00;67318.16;4971028;28;19929;-76
2022/08/28 02:11:53;;;;;;;;;;;19.90;86.90;;;-147.18;100.00;67318.16;4979079;28;19922;-76
2022/08/28 02:14:21;;;;;;;;;;;19.90;86.80;;;-147.18;100.00;67318.16;4995967;23;19921;-78
2022/08/28 02:16:50;;;;;;;;;;;19.90;86.80;;;-147.18;100.00;67318.16;4989201;28;19953;-78
2022/08/28 02:19:17;;;;;;;;;;;19.90;86.70;;;-147.18;100.00;67318.16;4986222;28;19930;-78
2022/08/28 02:21:44;;;;;;;;;;;19.90;86.70;;;-147.18;100.00;67318.16;4990334;28;20137;-78
2022/08/28 02:24:11;;;;;;;;;;;19.90;87.00;;;-147.18;100.00;67318.16;4989043;28;20016;-78
2022/08/28 02:26:38;;;;;;;;;;;19.90;86.90;;;-147.18;100.00;67318.16;4969448;28;20279;-78
2022/08/28 02:29:06;;;;;;;;;;;19.90;86.80;;;-147.18;100.00;67318.16;4966709;28;19922;-78
2022/08/28 02:31:33;;;;;;;;;;;19.90;86.80;;;-147.18;100.00;67318.16;4971632;28;19926;-78
2022/08/28 02:34:01;;;;;;;;;;;19.90;86.90;;;-147.18;100.00;67318.16;4971374;28;19933;-78
2022/08/28 02:36:28;;;;;;;;;;;19.80;86.80;;;-147.18;100.00;67318.16;4969862;28;19929;-78
2022/08/28 02:38:55;;;;;;;;;;;19.80;86.90;;;-147.18;100.00;67318.16;4971223;28;19922;-78
2022/08/28 02:41:22;;;;;;;;;;;19.80;87.00;;;-147.18;100.00;67318.16;4971306;28;19926;-78
2022/08/28 02:43:49;;;;;;;;;;;19.80;87.10;;;-147.18;100.00;67318.16;4970200;28;20307;-78
2022/08/28 02:46:16;;;;;;;;;;;19.80;87.20;;;-147.18;100.00;67318.16;4974733;28;19930;-78
2022/08/28 02:48:44;;;;;;;;;;;19.80;87.20;;;-147.18;100.00;67318.16;4969213;28;20009;-78
2022/08/28 02:51:13;;;;;;;;;;;19.70;87.50;;;-147.18;100.00;67318.16;4979122;28;20318;-81
2022/08/28 02:53:41;;;;;;;;;;;19.70;87.30;;;-147.18;100.00;67318.16;4971120;28;19945;-81
2022/08/28 02:56:09;;;;;;;;;;;19.70;87.50;;;-147.18;100.00;67318.16;4970394;28;19925;-81
2022/08/28 02:58:36;;;;;;;;;;;19.60;87.60;;;-147.18;100.00;67318.16;4965274;28;20414;-81
2022/08/28 03:01:05;;;;;;;;;;;19.60;87.70;;;-147.18;100.00;67318.16;4970532;28;19949;-81
2022/08/28 03:03:32;;;;;;;;;;;19.60;87.70;;;-147.18;100.00;67318.16;4982606;28;19964;-81
2022/08/28 03:06:00;;;;;;;;;;;19.60;87.70;;;-147.18;100.00;67318.16;4988543;28;19965;-79
2022/08/28 03:08:29;;;;;;;;;;;19.60;87.80;;;-147.18;100.00;67318.16;4970471;28;19933;-79
2022/08/28 03:10:56;;;;;;;;;;;19.60;87.80;;;-147.18;100.00;67318.16;4970499;28;20298;-79
2022/08/28 03:13:23;;;;;;;;;;;19.50;87.80;;;-147.18;100.00;67318.16;4978465;28;19932;-79
2022/08/28 03:15:50;;;;;;;;;;;19.50;87.90;;;-147.18;100.00;67318.16;4978191;28;19937;-79
2022/08/28 03:18:18;;;;;;;;;;;19.50;88.00;;;-147.18;100.00;67318.16;4970098;28;19981;-79
2022/08/28 03:20:46;;;;;;;;;;;19.40;88.00;;;-147.18;100.00;67318.16;4970929;28;19922;-79
2022/08/28 03:23:29;;;;;;;;;;;19.40;88.30;;;-147.18;100.00;67318.16;4978282;28;19961;-79
2022/08/28 03:26:00;;;;;;;;;;;19.50;88.80;;;-147.18;100.00;67318.16;4975261;28;19973;-79
2022/08/28 03:28:33;;;;;;;;;;;19.50;88.60;;;-147.18;100.00;67318.16;4970495;28;19925;-79
2022/08/28 03:31:00;;;;;;;;;;;19.40;88.50;;;-147.18;100.00;67318.16;4970593;28;19922;-79
2022/08/28 03:33:27;;;;;;;;;;;19.40;88.60;;;-147.18;100.00;67318.16;4969709;28;19956;-79
2022/08/28 03:35:55;;;;;;;;;;;19.40;88.60;;;-147.18;100.00;67318.16;4984119;28;19926;-79
2022/08/28 03:38:22;;;;;;;;;;;19.40;88.60;;;-147.18;100.00;67318.16;4969466;28;19922;-79
2022/08/28 03:40:50;;;;;;;;;;;19.30;88.80;;;-147.18;100.00;67318.16;4973406;28;19922;-79
2022/08/28 03:43:20;;;;;;;;;;;19.30;89.00;;;-147.18;100.00;67318.16;4988205;28;19922;-79
2022/08/28 03:45:56;;;;;;;;;;;19.30;89.00;;;-147.18;100.00;67318.16;4984459;28;19925;-79
2022/08/28 03:48:23;;;;;;;;;;;19.30;89.30;;;-147.18;100.00;67318.16;4968689;28;19926;-79
2022/08/28 03:50:50;;;;;;;;;;;19.30;89.20;;;-147.18;100.00;67318.16;4974313;28;20331;-80
2022/08/28 03:53:17;;;;;;;;;;;19.20;89.20;;;-147.18;100.00;67318.16;4973734;28;19925;-79
2022/08/28 03:55:45;;;;;;;;;;;19.20;89.20;;;-147.18;100.00;67318.16;4973276;28;19922;-79
2022/08/28 03:58:12;;;;;;;;;;;19.20;89.30;;;-147.18;100.00;67318.16;4977804;28;20385;-79
2022/08/28 04:00:41;;;;;;;;;;;19.20;89.40;;;-147.18;100.00;67318.16;4974071;28;19957;-79
2022/08/28 04:03:08;;;;;;;;;;;19.20;89.50;;;-147.18;100.00;67318.16;4973760;28;20449;-79
2022/08/28 04:05:35;;;;;;;;;;;19.20;89.40;;;-147.18;100.00;67318.16;4980803;28;19944;-80
2022/08/28 04:08:02;;;;;;;;;;;19.20;89.50;;;-147.18;100.00;67318.16;4974919;28;20021;-79
2022/08/28 04:10:31;;;;;;;;;;;19.20;89.60;;;-147.18;100.00;67318.16;4977256;28;19925;-79
2022/08/28 04:12:59;;;;;;;;;;;19.20;89.50;;;-147.18;100.00;67318.16;4985117;28;19926;-79
2022/08/28 04:15:26;;;;;;;;;;;19.10;89.70;;;-147.18;100.00;67318.16;4992960;28;20012;-79
2022/08/28 04:17:55;;;;;;;;;;;19.10;89.80;;;-147.18;100.00;67318.16;4979910;28;19993;-79
2022/08/28 04:20:22;;;;;;;;;;;19.20;90.00;;;-147.18;100.00;67318.16;4971730;28;20406;-79
2022/08/28 04:22:49;;;;;;;;;;;19.20;89.90;;;-147.18;100.00;67318.16;4984975;28;20378;-79
2022/08/28 04:25:16;;;;;;;;;;;19.20;89.70;;;-147.18;100.00;67318.16;4982761;28;20434;-80
2022/08/28 04:27:44;;;;;;;;;;;19.20;89.80;;;-147.18;100.00;67318.16;4978435;28;19926;-79
2022/08/28 04:30:11;;;;;;;;;;;19.20;89.80;;;-147.18;100.00;67318.16;4974329;28;20013;-79
2022/08/28 04:32:39;;;;;;;;;;;19.20;89.90;;;-147.18;100.00;67318.16;4978788;28;19951;-79
2022/08/28 04:35:09;;;;;;;;;;;19.20;89.90;;;-147.18;100.00;67318.16;4984510;28;20370;-79
2022/08/28 04:37:37;;;;;;;;;;;19.20;89.90;;;-147.18;100.00;67318.16;4973147;28;20012;-79
2022/08/28 04:40:07;;;;;;;;;;;19.20;90.00;;;-147.18;100.00;67318.16;4973323;28;19926;-79
2022/08/28 04:42:34;;;;;;;;;;;19.20;90.10;;;-147.18;100.00;67318.16;4973304;28;19957;-79
2022/08/28 04:45:01;;;;;;;;;;;19.20;90.00;;;-147.18;100.00;67318.16;4980191;28;19928;-80
2022/08/28 04:47:29;;;;;;;;;;;19.20;89.90;;;-147.18;100.00;67318.16;4977978;28;19926;-79
2022/08/28 04:49:57;;;;;;;;;;;19.20;89.80;;;-147.18;100.00;67318.16;4973201;28;19985;-79
2022/08/28 04:52:25;;;;;;;;;;;19.10;89.80;;;-147.18;100.00;67318.16;4973224;28;20048;-79
2022/08/28 04:54:52;;;;;;;;;;;19.10;90.00;;;-147.18;100.00;67318.16;4971078;28;19977;-79
2022/08/28 04:57:19;;;;;;;;;;;19.10;90.10;;;-147.18;100.00;67318.16;4975341;28;19961;-79
2022/08/28 04:59:46;;;;;;;;;;;19.10;90.00;;;-147.18;100.00;67318.16;4975198;28;20334;-79
2022/08/28 05:02:13;;;;;;;;;;;19.10;89.90;;;-147.18;100.00;67318.16;4973063;28;19933;-79
2022/08/28 05:04:40;;;;;;;;;;;19.10;89.90;;;-147.18;100.00;67318.16;4971092;28;19922;-79
2022/08/28 05:07:07;;;;;;;;;;;19.00;89.90;;;-147.18;100.00;67318.16;4972683;28;19934;-79
2022/08/28 05:09:35;;;;;;;;;;;19.00;90.00;;;-147.18;100.00;67318.16;4980001;28;19932;-79
2022/08/28 05:12:03;;;;;;;;;;;19.00;90.20;;;-147.18;100.00;67318.16;4989912;28;19922;-79
2022/08/28 05:14:30;;;;;;;;;;;19.00;90.10;;;-147.18;100.00;67318.16;4978547;28;19929;-79
2022/08/28 05:16:58;;;;;;;;;;;19.00;90.20;;;-147.18;100.00;67318.16;4972716;28;19961;-79
2022/08/28 05:19:26;;;;;;;;;;;19.00;90.00;;;-147.18;100.00;67318.16;4975123;28;19932;-79
2022/08/28 05:21:53;;;;;;;;;;;19.00;90.30;;;-147.18;100.00;67318.16;4980766;28;19957;-79
2022/08/28 05:24:21;;;;;;;;;;;19.00;90.30;;;-147.18;100.00;67318.16;4969817;28;19922;-79
2022/08/28 05:26:49;;;;;;;;;;;19.00;90.20;;;-147.18;100.00;67318.16;4967064;28;19925;-79
2022/08/28 05:29:16;;;;;;;;;;;19.00;90.30;;;-147.18;100.00;67318.16;4972050;28;19957;-79
2022/08/28 05:31:44;;;;;;;;;;;19.00;90.40;;;-147.18;100.00;67318.16;4979923;28;20033;-79
2022/08/28 05:34:11;;;;;;;;;;;19.00;90.50;;;-147.18;100.00;67318.16;4979323;28;19922;-81
2022/08/28 05:37:00;;;;;;;;;;;;;;;;;;;;;
2022/08/28 05:39:29;;;;;;;;;;;19.10;90.40;;;-147.18;100.00;67318.16;4972290;28;19985;-79
2022/08/28 05:41:58;;;;;;;;;;;19.10;90.70;;;-147.18;100.00;67318.16;4971599;28;19922;-78
2022/08/28 05:44:25;;;;;;;;;;;19.10;90.70;;;-147.18;100.00;67318.16;4979013;28;20466;-79
2022/08/28 05:46:52;;;;;;;;;;;19.10;90.50;;;-147.18;100.00;67318.16;4971790;28;19921;-80
2022/08/28 05:49:19;;;;;;;;;;;19.20;90.60;;;-147.18;100.00;67318.16;4972158;28;19922;-79
2022/08/28 05:51:46;;;;;;;;;;;19.20;90.40;;;-147.18;100.00;67318.16;4979408;28;19922;-80
2022/08/28 05:54:14;;;;;;;;;;;19.20;90.20;;;-147.18;100.00;67318.16;4977590;28;20001;-81
2022/08/28 05:56:42;;;;;;;;;;;19.20;90.10;;;-147.18;100.00;67318.16;4971744;28;20445;-77
2022/08/28 05:59:12;;;;;;;;;;;19.20;90.10;;;-147.18;100.00;67318.16;4969588;28;19926;-77
2022/08/28 06:01:41;;;;;;;;;;;19.20;90.10;;;-147.18;100.00;67318.16;4971810;28;19932;-76
2022/08/28 06:04:11;;;;;;;;;;;19.20;90.00;;;-147.18;100.00;67318.16;4972005;28;20390;-77
2022/08/28 06:06:40;;;;;;;;;;;19.20;89.90;;;-147.18;100.00;67318.16;4970603;28;20013;-77
2022/08/28 06:09:09;;;;;;;;;;;19.20;90.00;;;-147.18;100.00;67318.16;4973915;28;19922;-76
2022/08/28 06:11:37;;;;;;;;;;;19.20;90.20;;;-147.18;100.00;67318.16;4978047;28;19926;-76
2022/08/28 06:14:08;;;;;;;;;;;19.30;90.10;;;-147.18;100.00;67318.16;4971677;28;19941;-76
2022/08/28 06:16:37;;;;;;;;;;;19.30;90.20;;;-147.18;100.00;67318.16;4967920;28;20025;-76
2022/08/28 06:19:04;;;;;;;;;;;19.30;89.90;;;-147.18;100.00;67318.16;4978654;28;20000;-77
2022/08/28 06:21:32;;;;;;;;;;;19.30;89.70;;;-147.18;100.00;67318.16;4978823;28;20279;-77
2022/08/28 06:23:59;;;;;;;;;;;19.30;89.70;;;-147.18;100.00;67318.16;4979925;28;19922;-77
2022/08/28 06:26:27;;;;;;;;;;;19.40;89.90;;;-147.18;100.00;67318.16;4970828;28;19922;-77
2022/08/28 06:28:54;;;;;;;;;;;19.40;89.90;;;-147.18;100.00;67318.16;4971309;28;19922;-76
2022/08/28 06:31:21;;;;;;;;;;;19.40;89.90;;;-147.18;100.00;67318.16;4974524;28;19926;-77
2022/08/28 06:33:49;;;;;;;;;;;19.50;89.50;;;-147.18;100.00;67318.16;4981200;28;19926;-76
2022/08/28 06:36:16;;;;;;;;;;;19.50;90.10;;;-147.18;100.00;67318.16;4970464;28;19992;-77
2022/08/28 06:38:45;;;;;;;;;;;19.50;89.40;;;-147.18;100.00;67318.16;4971145;28;20303;-77
2022/08/28 06:41:13;;;;;;;;;;;19.50;89.50;;;-147.18;100.00;67318.16;4970228;28;19929;-77
2022/08/28 06:43:39;;;;;;;;;;;19.50;89.30;;;-147.18;100.00;67318.16;4969144;28;19926;-78
2022/08/28 06:46:07;;;;;;;;;;;19.50;88.80;;;-147.18;100.00;67318.16;4967259;28;19922;-77
2022/08/28 06:48:34;;;;;;;;;;;19.60;89.30;;;-147.18;100.00;67318.16;4969112;28;19926;-78
2022/08/28 06:51:05;;;;;;;;;;;19.60;88.90;;;-147.18;100.00;67318.16;4969948;28;20020;-78
2022/08/28 06:53:33;;;;;;;;;;;19.60;89.10;;;-147.18;100.00;67318.16;4969911;28;20025;-78
2022/08/28 06:56:05;;;;;;;;;;;19.70;88.90;;;-147.18;100.00;67318.16;4969965;28;19933;-78
2022/08/28 06:58:32;;;;;;;;;;;19.60;88.40;;;-147.18;100.00;67318.16;4969338;28;19985;-78
2022/08/28 07:01:05;;;;;;;;;;;19.70;88.60;;;-147.18;100.00;67318.16;4970098;28;20037;-78
2022/08/28 07:03:34;;;;;;;;;;;19.70;88.60;;;-147.18;100.00;67318.16;4969533;28;19922;-79
2022/08/28 07:06:05;;;;;;;;;;;19.80;88.90;;;-147.18;100.00;67318.16;4969678;28;19973;-78
2022/08/28 07:08:33;;;;;;;;;;;19.80;88.90;;;-147.18;100.00;67318.16;4969607;28;20382;-78
2022/08/28 07:11:09;;;;;;;;;;;19.80;88.80;;;-147.18;100.00;67318.16;4970236;28;19926;-78
2022/08/28 07:13:36;;;;;;;;;;;19.90;89.20;;;-147.18;100.00;67318.16;4978497;28;19926;-77
2022/08/28 07:16:03;;;;;;;;;;;20.00;88.60;;;-147.18;100.00;67318.16;4968178;28;19922;-77
2022/08/28 07:18:30;;;;;;;;;;;20.00;88.00;;;-147.18;100.00;67318.16;4969427;28;20390;-76
2022/08/28 07:20:59;;;;;;;;;;;20.00;87.90;;;-147.18;100.00;67318.16;4967553;28;19928;-76
2022/08/28 07:23:28;;;;;;;;;;;20.00;88.00;;;-147.18;100.00;67318.16;4969871;28;19926;-77
2022/08/28 07:25:55;;;;;;;;;;;20.10;87.70;;;-147.18;100.00;67318.16;4973044;28;19929;-77
2022/08/28 07:28:23;;;;;;;;;;;20.20;87.10;;;-147.18;100.00;67318.16;4973811;28;20121;-77
2022/08/28 07:30:56;;;;;;;;;;;20.20;86.80;;;-147.18;100.00;67318.16;4974021;28;20020;-76
2022/08/28 07:33:26;;;;;;;;;;;20.20;86.90;;;-147.18;100.00;67318.16;4973525;28;19922;-77
2022/08/28 07:35:53;;;;;;;;;;;20.30;86.60;;;-147.18;100.00;67318.16;4968881;28;20413;-77
2022/08/28 07:38:21;;;;;;;;;;;20.30;86.70;;;-147.18;100.00;67318.16;4975776;28;19921;-77
2022/08/28 07:40:49;;;;;;;;;;;20.40;86.70;;;-147.18;100.00;67318.16;4974064;28;19921;-77
2022/08/28 07:46:02;;;;;;;;;;;20.40;85.80;;;-147.18;100.00;67318.16;4978155;28;19926;-77
2022/08/28 07:48:29;;;;;;;;;;;20.40;85.10;;;-147.18;100.00;67318.16;4972515;28;19934;-77
2022/08/28 07:50:56;;;;;;;;;;;20.40;84.30;;;-147.18;100.00;67318.16;4972692;28;19926;-77
2022/08/28 07:53:24;;;;;;;;;;;20.40;84.50;;;-147.18;100.00;67318.16;4983610;28;20513;-77
2022/08/28 07:55:52;;;;;;;;;;;20.40;84.50;;;-147.18;100.00;67318.16;4985420;28;19926;-77
2022/08/28 07:58:20;;;;;;;;;;;20.40;85.00;;;-147.18;100.00;67318.16;4991961;28;19925;-77
2022/08/28 08:00:47;;;;;;;;;;;20.50;84.90;;;-147.18;100.00;67318.16;4984799;28;20382;-77
2022/08/28 08:03:15;;;;;;;;;;;20.50;85.30;;;-147.18;100.00;67318.16;4985268;28;19928;-77
2022/08/28 08:05:41;;;;;;;;;;;20.50;85.00;;;-147.18;100.00;67318.16;4993354;28;20012;-77
2022/08/28 08:08:08;;;;;;;;;;;20.50;84.10;;;-147.18;100.00;67318.16;4990960;28;20405;-77
2022/08/28 08:10:35;;;;;;;;;;;20.40;84.20;;;-147.18;100.00;67318.16;4985338;28;19928;-77
2022/08/28 08:13:04;;;;;;;;;;;20.40;84.50;;;-147.18;100.00;67318.16;4979332;28;20422;-77
2022/08/28 08:15:33;;;;;;;;;;;20.50;84.70;;;-147.18;100.00;67318.16;5008122;23;19930;-85
2022/08/28 08:18:00;;;;;;;;;;;20.50;84.30;;;-147.18;100.00;67318.16;4993806;28;19933;-89
2022/08/28 08:20:27;;;;;;;;;;;20.50;84.40;;;-147.18;100.00;67318.16;5010577;28;20290;-88
2022/08/28 08:22:54;;;;;;;;;;;20.50;84.20;;;-147.18;100.00;67318.16;5011534;28;19922;-87
2022/08/28 08:25:21;;;;;;;;;;;20.50;83.80;;;-147.18;100.00;67318.16;4992850;28;19985;-88
2022/08/28 08:27:50;;;;;;;;;;;20.50;83.00;;;-147.18;100.00;67318.16;4977562;28;19922;-88
2022/08/28 08:30:18;;;;;;;;;;;20.50;83.00;;;-147.18;100.00;67318.16;4981322;28;19926;-87
2022/08/28 08:32:45;;;;;;;;;;;20.50;83.20;;;-147.18;100.00;67318.16;4981667;28;19961;-87
2022/08/28 08:35:12;;;;;;;;;;;20.60;82.60;;;-147.18;100.00;67318.16;4983561;28;20393;-88
2022/08/28 08:37:39;;;;;;;;;;;20.50;82.60;;;-147.18;100.00;67318.16;4978939;28;20405;-88
2022/08/28 08:40:10;;;;;;;;;;;20.60;82.60;;;-147.18;100.00;67318.16;4975433;28;19925;-88
2022/08/28 08:42:37;;;;;;;;;;;20.60;82.70;;;-147.18;100.00;67318.16;4975974;28;19971;-87
2022/08/28 08:45:10;;;;;;;;;;;20.70;83.00;;;-147.18;100.00;67318.16;4986915;28;19926;-87
2022/08/28 08:47:43;;;;;;;;;;;20.70;82.10;;;-147.18;100.00;67318.16;4979330;28;19980;-87
2022/08/28 08:50:15;;;;;;;;;;;20.70;82.50;;;-147.18;100.00;67318.16;4986266;28;19953;-87
2022/08/28 08:52:58;;;;;;;;;;;20.80;82.70;;;-147.18;100.00;67318.16;4990025;28;19926;-88
2022/08/28 08:55:27;;;;;;;;;;;20.70;82.10;;;-147.18;100.00;67318.16;4987892;28;19922;-88
2022/08/28 08:58:00;;;;;;;;;;;20.70;81.70;;;-147.18;100.00;67318.16;4983110;28;19922;-87
2022/08/28 09:00:31;;;;;;;;;;;20.70;81.70;;;-147.18;100.00;67318.16;4978507;28;20021;-88
2022/08/28 09:03:04;;;;;;;;;;;20.70;82.10;;;-147.18;100.00;67318.16;4976313;28;20012;-88
2022/08/28 09:05:45;;;;;;;;;;;20.70;82.00;;;-147.18;100.00;67318.16;4987907;28;20036;-83
2022/08/28 09:08:17;;;;;;;;;;;20.70;81.70;;;-147.18;100.00;67318.16;4981025;28;19933;-84
2022/08/28 09:10:51;;;;;;;;;;;20.80;81.30;;;-147.18;100.00;67318.16;4972640;28;19930;-88
2022/08/28 09:13:25;;;;;;;;;;;20.80;81.40;;;-147.18;100.00;67318.16;4973658;28;20384;-88
2022/08/28 09:15:53;;;;;;;;;;;20.90;81.00;;;-147.18;100.00;67318.16;4977794;28;20450;-88
2022/08/28 09:18:24;;;;;;;;;;;20.80;79.70;;;-147.18;100.00;67318.16;4983601;28;19921;-82
2022/08/28 09:20:53;;;;;;;;;;;20.90;80.40;;;-147.18;100.00;67318.16;4981223;28;19926;-81
2022/08/28 09:23:21;;;;;;;;;;;20.90;80.60;;;-147.18;100.00;67318.16;4981611;28;19932;-81
2022/08/28 09:25:55;;;;;;;;;;;21.00;81.50;;;-147.18;100.00;67318.16;4991567;28;20342;-81
2022/08/28 09:28:25;;;;;;;;;;;21.00;81.90;;;-147.18;100.00;67318.16;4989850;28;19994;-90
2022/08/28 09:30:58;;;;;;;;;;;21.10;82.00;;;-147.18;100.00;67318.16;5000112;28;19925;-79
2022/08/28 09:33:45;;;;;;;;;;;21.10;78.80;;;-147.18;100.00;67318.16;4979732;28;19960;-81
2022/08/28 09:36:28;;;;;;;;;;;21.10;77.60;;;-147.18;100.00;67318.16;4990187;28;20036;-80
2022/08/28 09:39:08;;;;;;;;;;;21.10;77.70;;;-147.18;100.00;67318.16;4980845;28;20012;-80
2022/08/28 09:44:27;;;;;;;;;;;21.10;77.90;;;-147.18;100.00;67318.16;4920813;28;20392;-81
2022/08/28 09:46:54;;;;;;;;;;;21.10;78.70;;;-147.18;100.00;67318.16;4984509;28;20454;-80
2022/08/28 09:49:28;;;;;;;;;;;21.10;78.00;;;-147.18;100.00;67318.16;4992534;28;19957;-80
2022/08/28 09:51:58;;;;;;;;;;;21.20;78.20;;;-147.18;100.00;67318.16;4977856;28;19926;-80
2022/08/28 09:54:30;;;;;;;;;;;21.20;78.20;;;-147.18;100.00;67318.16;4972020;28;20379;-79
2022/08/28 09:56:57;;;;;;;;;;;21.20;78.10;;;-147.18;100.00;67318.16;4984916;28;20470;-83
2022/08/28 09:59:27;;;;;;;;;;;21.20;78.30;;;-147.18;100.00;67318.16;4984887;28;19928;-80
2022/08/28 10:02:09;;;;;;;;;;;21.20;77.70;;;-147.18;100.00;67318.16;4985241;28;19928;-81
2022/08/28 10:04:54;;;;;;;;;;;21.20;77.00;;;-147.18;100.00;67318.16;4988893;28;19968;-80
2022/08/28 10:07:29;;;;;;;;;;;21.20;77.80;;;-147.18;100.00;67318.16;4979703;28;19940;-80
2022/08/28 10:10:03;;;;;;;;;;;21.20;77.30;;;-147.18;100.00;67318.16;4993588;28;19983;-80
2022/08/28 10:12:37;;;;;;;;;;;21.30;77.70;;;-147.18;100.00;67318.16;4983955;28;19944;-80
2022/08/28 10:15:10;;;;;;;;;;;21.30;76.80;;;-147.18;100.00;67318.16;4996304;28;19956;-79
2022/08/28 10:17:47;;;;;;;;;;;21.30;77.40;;;-147.18;100.00;67318.16;4997897;28;19957;-82
2022/08/28 10:20:17;;;;;;;;;;;21.30;77.70;;;-147.18;100.00;67318.16;5001900;28;19922;-80
2022/08/28 10:22:51;;;;;;;;;;;21.40;77.40;;;-147.18;100.00;67318.16;4990839;28;19936;-80
2022/08/28 10:25:26;;;;;;;;;;;21.30;76.70;;;-147.18;100.00;67318.16;5000467;28;19929;-80
2022/08/28 10:28:23;;;;;;;;;;;21.30;76.90;;;-147.18;100.00;67318.16;4997842;28;19925;-80
2022/08/28 10:31:00;;;;;;;;;;;21.40;77.50;;;-147.18;100.00;67318.16;4972083;28;19929;-80
2022/08/28 10:33:41;;;;;;;;;;;21.40;77.50;;;-147.18;100.00;67318.16;4972172;28;19921;-80
2022/08/28 10:36:14;;;;;;;;;;;21.50;78.40;;;-147.18;100.00;67318.16;4986041;28;19926;-80
2022/08/28 10:38:44;;;;;;;;;;;21.40;77.20;;;-147.18;100.00;67318.16;4987700;28;19921;-79
2022/08/28 10:41:16;;;;;;;;;;;21.50;77.20;;;-147.18;100.00;67318.16;4987534;28;20020;-79
2022/08/28 10:43:46;;;;;;;;;;;21.50;77.00;;;-147.18;100.00;67318.16;4984448;28;20072;-80
2022/08/28 10:46:16;;;;;;;;;;;21.50;76.60;;;-147.18;100.00;67318.16;4988982;28;20000;-79
2022/08/28 10:48:47;;;;;;;;;;;21.50;76.40;;;-147.18;100.00;67318.16;4984708;28;20016;-79
2022/08/28 10:51:19;;;;;;;;;;;21.50;74.90;;;-147.18;100.00;67318.16;4989162;28;19972;-79
2022/08/28 10:53:50;;;;;;;;;;;21.50;75.20;;;-147.18;100.00;67318.16;4985749;28;19961;-79
2022/08/28 10:56:20;;;;;;;;;;;21.50;74.80;;;-147.18;100.00;67318.16;4984447;28;19928;-81
2022/08/28 10:58:52;;;;;;;;;;;21.50;74.60;;;-147.18;100.00;67318.16;4987043;28;19929;-80
2022/08/28 11:01:27;;;;;;;;;;;21.50;74.10;;;-147.18;100.00;67318.16;4986541;28;20015;-80
2022/08/28 11:03:55;;;;;;;;;;;21.50;74.50;;;-147.18;100.00;67318.16;4993901;28;19964;-81
2022/08/28 11:06:28;;;;;;;;;;;21.60;74.50;;;-147.18;100.00;67318.16;4994766;28;20294;-80
2022/08/28 11:08:57;;;;;;;;;;;21.60;74.10;;;-147.18;100.00;67318.16;4989891;28;19929;-80